createdAt,value
2023-01-30T00:00:01.807Z,100628.09
2023-01-30T00:05:05.942Z,100620.03
2023-01-30T00:10:08.243Z,100612.16
2023-01-30T00:15:10.699Z,100607.84
2023-01-30T00:20:14.142Z,100583.94
2023-01-30T00:25:17.056Z,100581.94
2023-01-30T00:30:18.956Z,100564.47
2023-01-30T00:35:20.516Z,100565.56
2023-01-30T00:40:21.924Z,100520.94
2023-01-30T00:45:42.167Z,100503.38
2023-01-30T00:50:43.663Z,100499.78
2023-01-30T00:55:46.706Z,100498.78
2023-01-30T01:00:50.115Z,100512.91
2023-01-30T01:05:51.574Z,100520.78
2023-01-30T01:10:52.995Z,100506.31
2023-01-30T01:15:54.405Z,100494.88
2023-01-30T01:20:55.866Z,100483.47
2023-01-30T01:26:01.707Z,100459.94
2023-01-30T01:31:14.978Z,100459.94
2023-01-30T01:36:42.434Z,100444.94
2023-01-30T01:41:37.976Z,100430.78
2023-01-30T01:46:58.510Z,100417.22
2023-01-30T01:52:05.308Z,100387.06
2023-01-30T01:57:12.093Z,100357.94
2023-01-30T02:02:14.519Z,100326.59
2023-01-30T02:07:18.467Z,100336.94
2023-01-30T02:12:19.927Z,100329.13
2023-01-30T02:17:23.549Z,100324.81
2023-01-30T02:22:46.074Z,100315.31
2023-01-30T02:28:11.114Z,100296.06
2023-01-30T02:33:41.223Z,100320.06
2023-01-30T02:39:04.276Z,100338.06
2023-01-30T02:44:30.149Z,100328.72
2023-01-30T02:49:41.718Z,100305.06
2023-01-30T02:54:43.163Z,100290.22
2023-01-30T02:59:48.435Z,100271.66
2023-01-30T03:05:07.274Z,100264.63
2023-01-30T03:10:23.855Z,100258.28
2023-01-30T03:15:51.103Z,100236.16
2023-01-30T03:20:52.755Z,100212.00
2023-01-30T03:25:54.213Z,100184.63
2023-01-30T03:30:56.157Z,100175.41
2023-01-30T03:35:57.819Z,100157.09
2023-01-30T03:40:59.307Z,100139.25
2023-01-30T03:46:00.843Z,100151.22
2023-01-30T03:51:03.629Z,100151.06
2023-01-30T03:56:05.418Z,100171.00
2023-01-30T04:01:09.334Z,100174.22
2023-01-30T04:06:10.921Z,100149.59
2023-01-30T04:11:12.402Z,100127.28
2023-01-30T04:16:22.830Z,100099.59
2023-01-30T04:21:49.913Z,100104.38
2023-01-30T04:26:51.598Z,100097.66
2023-01-30T04:31:53.469Z,100079.31
2023-01-30T04:36:58.450Z,100074.88
2023-01-30T04:41:59.957Z,100066.44
2023-01-30T04:47:01.720Z,100051.84
2023-01-30T04:52:03.694Z,100046.81
2023-01-30T04:57:05.144Z,100024.34
2023-01-30T05:02:06.743Z,100009.28
2023-01-30T05:07:08.184Z,99970.44
2023-01-30T05:12:09.612Z,99969.41
2023-01-30T05:17:11.079Z,99942.91
2023-01-30T05:22:12.654Z,99951.34
2023-01-30T05:27:14.079Z,99918.63
2023-01-30T05:32:17.258Z,99939.84
2023-01-30T05:37:18.685Z,99926.16
2023-01-30T05:42:20.140Z,99933.28
2023-01-30T05:47:21.565Z,99930.94
2023-01-30T05:52:23.001Z,99898.38
2023-01-30T05:57:24.521Z,99887.84
2023-01-30T06:02:25.971Z,99882.88
2023-01-30T06:07:27.426Z,99888.66
2023-01-30T06:12:29.186Z,99904.28
2023-01-30T06:17:35.778Z,99893.69
2023-01-30T06:22:38.094Z,99900.25
2023-01-30T06:27:40.535Z,99888.94
2023-01-30T06:32:42.755Z,99899.88
2023-01-30T06:37:45.161Z,99903.91
2023-01-30T06:42:48.657Z,99910.31
2023-01-30T06:47:52.451Z,99921.50
2023-01-30T06:52:54.729Z,99918.56
2023-01-30T06:58:11.314Z,99921.56
2023-01-30T07:03:14.750Z,99911.69
2023-01-30T07:08:16.823Z,99898.59
2023-01-30T07:13:18.251Z,99886.03
2023-01-30T07:18:19.671Z,99868.44
2023-01-30T07:23:21.157Z,99873.75
2023-01-30T07:28:22.609Z,99894.84
2023-01-30T07:33:24.033Z,99883.75
2023-01-30T07:38:25.458Z,99878.19
2023-01-30T07:43:26.872Z,99871.72
2023-01-30T07:48:28.352Z,99860.69
2023-01-30T07:53:29.791Z,99879.34
2023-01-30T07:58:31.234Z,99858.91
2023-01-30T08:03:32.653Z,99871.94
2023-01-30T08:08:34.069Z,99870.69
2023-01-30T08:13:35.711Z,99862.03
2023-01-30T08:18:37.237Z,99886.09
2023-01-30T08:23:38.696Z,99873.25
2023-01-30T08:28:40.698Z,99870.22
2023-01-30T08:33:42.240Z,99875.19
2023-01-30T08:38:43.666Z,99876.19
2023-01-30T08:43:45.078Z,99887.13
2023-01-30T08:48:49.900Z,99871.69
2023-01-30T08:53:51.937Z,99869.59
2023-01-30T08:58:53.387Z,99871.25
2023-01-30T09:03:54.948Z,99877.91
2023-01-30T09:08:56.380Z,99880.00
2023-01-30T09:13:57.937Z,99889.09
2023-01-30T09:18:59.383Z,99890.50
2023-01-30T09:24:00.812Z,99882.22
2023-01-30T09:29:02.232Z,99878.97
2023-01-30T09:34:03.681Z,99891.84
2023-01-30T09:39:05.099Z,99861.75
2023-01-30T09:44:23.081Z,99874.75
2023-01-30T09:49:44.500Z,99868.19
2023-01-30T09:54:46.423Z,99856.97
2023-01-30T10:00:04.006Z,99849.25
2023-01-30T10:05:14.311Z,99846.91
2023-01-30T10:10:44.752Z,99839.38
2023-01-30T10:16:14.076Z,99825.63
2023-01-30T10:21:37.470Z,99826.38
2023-01-30T10:26:41.791Z,99820.53
2023-01-30T10:32:00.197Z,99848.19
2023-01-30T10:37:14.296Z,99842.97
2023-01-30T10:42:23.728Z,99853.41
2023-01-30T10:47:47.078Z,99844.56
2023-01-30T10:52:52.638Z,99851.88
2023-01-30T10:58:17.289Z,99849.53
2023-01-30T11:03:37.509Z,99847.56
2023-01-30T11:08:38.946Z,99835.59
2023-01-30T11:13:40.382Z,99824.09
2023-01-30T11:19:18.972Z,99832.66
2023-01-30T11:24:19.435Z,99822.81
2023-01-30T11:29:35.199Z,99830.88
2023-01-30T11:34:36.632Z,99813.53
2023-01-30T11:39:38.128Z,99823.44
2023-01-30T11:44:42.420Z,99813.41
2023-01-30T11:49:56.985Z,99813.63
2023-01-30T11:55:20.448Z,99788.47
2023-01-30T12:00:27.897Z,99795.81
2023-01-30T12:05:36.693Z,99796.56
2023-01-30T12:10:42.713Z,99777.53
2023-01-30T12:15:45.508Z,99761.34
2023-01-30T12:20:55.537Z,99762.94
2023-01-30T12:25:59.871Z,99759.84
2023-01-30T12:31:11.926Z,99744.44
2023-01-30T12:36:45.287Z,99741.50
2023-01-30T12:42:02.171Z,99734.56
2023-01-30T12:47:33.039Z,99724.09
2023-01-30T12:52:50.925Z,99721.47
2023-01-30T12:58:07.477Z,99713.66
2023-01-30T13:03:22.439Z,99711.56
2023-01-30T13:09:01.139Z,99726.88
2023-01-30T13:14:15.068Z,99701.19
2023-01-30T13:19:31.140Z,99715.47
2023-01-30T13:24:58.973Z,99708.72
2023-01-30T13:30:01.825Z,99724.97
2023-01-30T13:35:06.241Z,99727.00
2023-01-30T13:40:17.729Z,99716.31
2023-01-30T13:45:26.335Z,99711.63
2023-01-30T13:50:40.949Z,99724.88
2023-01-30T13:56:27.192Z,99722.69
2023-01-30T14:02:03.592Z,99732.28
2023-01-30T14:07:29.908Z,99744.94
2023-01-30T14:12:44.346Z,99731.47
2023-01-30T14:17:57.823Z,99735.66
2023-01-30T14:23:01.755Z,99732.28
2023-01-30T14:28:05.992Z,99744.19
2023-01-30T14:33:27.383Z,99746.13
2023-01-30T14:38:33.474Z,99750.09
2023-01-30T14:43:41.236Z,99742.28
2023-01-30T14:48:54.810Z,99735.91
2023-01-30T14:53:59.887Z,99738.91
2023-01-30T14:59:04.361Z,99734.47
2023-01-30T15:04:05.861Z,99734.56
2023-01-30T15:09:09.250Z,99748.63
2023-01-30T15:14:40.542Z,99764.63
2023-01-30T15:20:03.760Z,99772.91
2023-01-30T15:25:21.919Z,99790.44
2023-01-30T15:30:57.040Z,99804.38
2023-01-30T15:35:59.487Z,99817.28
2023-01-30T15:41:06.302Z,99830.47
2023-01-30T15:46:15.867Z,99842.50
2023-01-30T15:51:22.415Z,99848.66
2023-01-30T15:56:31.126Z,99851.50
2023-01-30T16:01:32.866Z,99841.41
2023-01-30T16:06:36.721Z,99859.13
2023-01-30T16:11:42.785Z,99859.84
2023-01-30T16:16:50.390Z,99854.34
2023-01-30T16:21:55.475Z,99858.78
2023-01-30T16:27:01.263Z,99862.06
2023-01-30T16:32:13.151Z,99862.78
2023-01-30T16:37:20.569Z,99858.22
2023-01-30T16:42:29.488Z,99860.63
2023-01-30T16:47:34.628Z,99847.44
2023-01-30T16:52:44.162Z,99874.16
2023-01-30T16:57:55.725Z,99892.00
2023-01-30T17:03:07.258Z,99902.47
2023-01-30T17:08:30.604Z,99886.88
2023-01-30T17:14:13.536Z,99909.19
2023-01-30T17:19:15.086Z,99921.50
2023-01-30T17:24:20.453Z,99909.97
2023-01-30T17:29:28.834Z,99922.69
2023-01-30T17:34:43.522Z,99926.06
2023-01-30T17:39:45.077Z,99939.97
2023-01-30T17:44:46.525Z,99924.53
2023-01-30T17:49:47.967Z,99938.63
2023-01-30T17:54:49.436Z,99936.31
2023-01-30T17:59:51.162Z,99957.66
2023-01-30T18:04:52.605Z,99967.50
2023-01-30T18:09:54.041Z,99999.94
2023-01-30T18:14:55.466Z,100007.94
2023-01-30T18:19:57.140Z,100017.06
2023-01-30T18:24:58.620Z,100025.22
2023-01-30T18:30:00.059Z,100037.91
2023-01-30T18:35:01.506Z,100048.69
2023-01-30T18:40:03.309Z,100056.22
2023-01-30T18:45:05.161Z,100072.28
2023-01-30T18:50:06.758Z,100066.13
2023-01-30T18:55:08.401Z,100068.88
2023-01-30T19:00:10.368Z,100102.09
2023-01-30T19:05:11.837Z,100108.75
2023-01-30T19:10:17.186Z,100104.63
2023-01-30T19:15:19.013Z,100112.47
2023-01-30T19:20:23.091Z,100136.78
2023-01-30T19:25:25.838Z,100127.47
2023-01-30T19:30:29.342Z,100136.16
2023-01-30T19:35:30.807Z,100168.63
2023-01-30T19:40:32.268Z,100176.13
2023-01-30T19:45:33.783Z,100198.66
2023-01-30T19:50:36.290Z,100200.88
2023-01-30T19:55:37.723Z,100206.06
2023-01-30T20:00:39.171Z,100229.03
2023-01-30T20:05:40.610Z,100217.59
2023-01-30T20:10:42.204Z,100226.09
2023-01-30T20:15:43.639Z,100218.88
2023-01-30T20:20:45.075Z,100232.94
2023-01-30T20:25:48.603Z,100222.25
2023-01-30T20:30:50.255Z,100232.72
2023-01-30T20:35:51.729Z,100244.78
2023-01-30T20:41:00.956Z,100245.31
2023-01-30T20:46:14.585Z,100274.63
2023-01-30T20:51:21.788Z,100272.28
2023-01-30T20:56:25.257Z,100287.81
2023-01-30T21:01:26.840Z,100302.09
2023-01-30T21:06:42.820Z,100310.44
2023-01-30T21:11:47.403Z,100316.72
2023-01-30T21:16:49.979Z,100320.19
2023-01-30T21:21:54.915Z,100316.22
2023-01-30T21:26:57.118Z,100321.06
2023-01-30T21:31:58.883Z,100311.19
2023-01-30T21:37:18.929Z,100338.84
2023-01-30T21:42:39.202Z,100331.81
2023-01-30T21:47:41.137Z,100352.28
2023-01-30T21:52:42.654Z,100364.81
2023-01-30T21:57:44.089Z,100356.28
2023-01-30T22:02:49.437Z,100367.84
2023-01-30T22:07:50.872Z,100380.22
2023-01-30T22:12:52.339Z,100390.56
2023-01-30T22:17:54.345Z,100392.22
2023-01-30T22:22:55.852Z,100395.22
2023-01-30T22:27:57.291Z,100419.00
2023-01-30T22:32:58.731Z,100430.44
2023-01-30T22:38:00.167Z,100445.66
2023-01-30T22:43:01.625Z,100458.13
2023-01-30T22:48:03.159Z,100467.09
2023-01-30T22:53:04.634Z,100451.44
2023-01-30T22:58:06.062Z,100441.03
2023-01-30T23:03:07.508Z,100439.75
2023-01-30T23:08:08.940Z,100439.91
2023-01-30T23:13:15.182Z,100443.03
2023-01-30T23:18:35.548Z,100457.38
2023-01-30T23:23:37.000Z,100465.28
2023-01-30T23:28:39.373Z,100466.31
2023-01-30T23:33:41.488Z,100459.38
2023-01-30T23:38:42.970Z,100477.38
2023-01-30T23:43:45.521Z,100453.13
2023-01-30T23:48:50.273Z,100462.19
2023-01-30T23:53:52.600Z,100472.88
2023-01-30T23:58:53.985Z,100466.72
